sensor_id;sensor_type;location;lat;lon;timestamp;P1;P2;P0
65383;PMS5003;51986;52.788;41.368;2023-04-06T00:00:51;28.00;25.00;20.00
65383;PMS5003;51986;52.788;41.368;2023-04-06T00:03:18;28.50;25.50;20.50
65383;PMS5003;51986;52.788;41.368;2023-04-06T00:05:46;26.00;24.00;19.00
65383;PMS5003;51986;52.788;41.368;2023-04-06T00:08:14;26.00;24.00;19.00
65383;PMS5003;51986;52.788;41.368;2023-04-06T00:10:41;25.00;23.00;19.00
65383;PMS5003;51986;52.788;41.368;2023-04-06T00:13:08;24.50;22.25;18.75
65383;PMS5003;51986;52.788;41.368;2023-04-06T00:15:35;31.75;27.00;22.00
65383;PMS5003;51986;52.788;41.368;2023-04-06T00:18:02;32.25;27.00;22.00
65383;PMS5003;51986;52.788;41.368;2023-04-06T00:20:29;30.25;26.00;20.50
65383;PMS5003;51986;52.788;41.368;2023-04-06T00:22:56;30.00;26.50;21.50
65383;PMS5003;51986;52.788;41.368;2023-04-06T00:25:23;25.75;23.75;19.00
65383;PMS5003;51986;52.788;41.368;2023-04-06T00:27:50;29.50;25.50;21.00
65383;PMS5003;51986;52.788;41.368;2023-04-06T00:30:18;31.00;26.75;21.50
65383;PMS5003;51986;52.788;41.368;2023-04-06T00:32:45;27.50;24.25;19.50
65383;PMS5003;51986;52.788;41.368;2023-04-06T00:35:12;26.50;23.00;19.50
65383;PMS5003;51986;52.788;41.368;2023-04-06T00:37:39;29.00;24.50;21.00
65383;PMS5003;51986;52.788;41.368;2023-04-06T00:40:06;30.75;27.00;21.75
65383;PMS5003;51986;52.788;41.368;2023-04-06T00:42:33;28.00;25.00;20.00
65383;PMS5003;51986;52.788;41.368;2023-04-06T00:45:00;26.00;24.00;19.00
65383;PMS5003;51986;52.788;41.368;2023-04-06T00:47:28;26.00;23.00;19.00
65383;PMS5003;51986;52.788;41.368;2023-04-06T00:49:56;27.50;24.00;19.50
65383;PMS5003;51986;52.788;41.368;2023-04-06T00:52:23;28.00;25.00;20.00
65383;PMS5003;51986;52.788;41.368;2023-04-06T00:54:51;28.50;25.25;20.75
65383;PMS5003;51986;52.788;41.368;2023-04-06T00:57:20;24.25;22.25;18.25
65383;PMS5003;51986;52.788;41.368;2023-04-06T00:59:53;30.50;25.50;20.00
65383;PMS5003;51986;52.788;41.368;2023-04-06T01:02:20;30.00;26.00;21.00
65383;PMS5003;51986;52.788;41.368;2023-04-06T01:04:51;27.00;24.00;19.25
65383;PMS5003;51986;52.788;41.368;2023-04-06T01:07:30;24.00;22.00;18.00
65383;PMS5003;51986;52.788;41.368;2023-04-06T01:10:11;28.00;25.00;20.00
65383;PMS5003;51986;52.788;41.368;2023-04-06T01:12:49;27.00;24.00;19.25
65383;PMS5003;51986;52.788;41.368;2023-04-06T01:15:26;25.00;23.00;19.00
65383;PMS5003;51986;52.788;41.368;2023-04-06T01:17:55;24.25;22.00;17.75
65383;PMS5003;51986;52.788;41.368;2023-04-06T01:20:22;26.00;24.00;19.00
65383;PMS5003;51986;52.788;41.368;2023-04-06T01:22:50;21.50;20.50;16.25
65383;PMS5003;51986;52.788;41.368;2023-04-06T01:25:18;22.75;21.00;17.00
65383;PMS5003;51986;52.788;41.368;2023-04-06T01:27:53;23.50;22.00;18.00
65383;PMS5003;51986;52.788;41.368;2023-04-06T01:30:23;26.00;22.50;18.00
65383;PMS5003;51986;52.788;41.368;2023-04-06T01:32:55;27.50;24.25;19.25
65383;PMS5003;51986;52.788;41.368;2023-04-06T01:35:40;30.00;26.00;20.50
65383;PMS5003;51986;52.788;41.368;2023-04-06T01:38:14;32.00;28.00;22.00
65383;PMS5003;51986;52.788;41.368;2023-04-06T01:40:42;32.50;28.00;22.00
65383;PMS5003;51986;52.788;41.368;2023-04-06T01:43:09;24.50;22.25;18.25
65383;PMS5003;51986;52.788;41.368;2023-04-06T01:45:51;24.00;22.00;18.00
65383;PMS5003;51986;52.788;41.368;2023-04-06T01:48:20;25.00;22.50;18.00
65383;PMS5003;51986;52.788;41.368;2023-04-06T01:50:48;20.00;19.00;15.00
65383;PMS5003;51986;52.788;41.368;2023-04-06T01:53:20;19.00;18.50;15.00
65383;PMS5003;51986;52.788;41.368;2023-04-06T01:55:54;20.00;20.00;17.00
65383;PMS5003;51986;52.788;41.368;2023-04-06T01:58:26;20.50;20.50;16.25
65383;PMS5003;51986;52.788;41.368;2023-04-06T02:00:53;20.00;20.00;15.50
65383;PMS5003;51986;52.788;41.368;2023-04-06T02:03:21;22.50;21.50;17.50
65383;PMS5003;51986;52.788;41.368;2023-04-06T02:05:55;22.75;22.00;17.75
65383;PMS5003;51986;52.788;41.368;2023-04-06T02:08:29;21.25;20.00;16.00
65383;PMS5003;51986;52.788;41.368;2023-04-06T02:10:58;28.25;24.75;19.75
65383;PMS5003;51986;52.788;41.368;2023-04-06T02:13:33;26.00;24.00;19.00
65383;PMS5003;51986;52.788;41.368;2023-04-06T02:16:00;25.00;22.50;18.00
65383;PMS5003;51986;52.788;41.368;2023-04-06T02:18:29;25.25;23.00;18.00
65383;PMS5003;51986;52.788;41.368;2023-04-06T02:20:57;31.75;27.00;20.50
65383;PMS5003;51986;52.788;41.368;2023-04-06T02:23:24;28.00;24.25;20.00
65383;PMS5003;51986;52.788;41.368;2023-04-06T02:25:51;27.00;24.00;19.50
65383;PMS5003;51986;52.788;41.368;2023-04-06T02:28:18;25.50;22.50;18.25
65383;PMS5003;51986;52.788;41.368;2023-04-06T02:30:45;28.50;25.00;19.75
65383;PMS5003;51986;52.788;41.368;2023-04-06T02:33:12;26.75;24.00;19.00
65383;PMS5003;51986;52.788;41.368;2023-04-06T02:35:43;29.00;25.00;20.00
65383;PMS5003;51986;52.788;41.368;2023-04-06T02:38:11;31.00;26.00;21.00
65383;PMS5003;51986;52.788;41.368;2023-04-06T02:40:38;31.00;25.75;21.00
65383;PMS5003;51986;52.788;41.368;2023-04-06T02:43:15;27.00;24.00;20.00
65383;PMS5003;51986;52.788;41.368;2023-04-06T02:45:43;25.75;23.00;19.00
65383;PMS5003;51986;52.788;41.368;2023-04-06T02:48:11;23.00;22.00;18.00
65383;PMS5003;51986;52.788;41.368;2023-04-06T02:50:38;24.00;22.00;18.00
65383;PMS5003;51986;52.788;41.368;2023-04-06T02:53:06;25.25;22.75;18.00
65383;PMS5003;51986;52.788;41.368;2023-04-06T02:55:36;25.50;22.25;18.00
65383;PMS5003;51986;52.788;41.368;2023-04-06T02:58:03;29.50;25.00;19.75
65383;PMS5003;51986;52.788;41.368;2023-04-06T03:00:39;27.00;23.00;19.00
65383;PMS5003;51986;52.788;41.368;2023-04-06T03:03:06;23.00;22.00;18.00
65383;PMS5003;51986;52.788;41.368;2023-04-06T03:05:33;28.50;25.00;20.00
65383;PMS5003;51986;52.788;41.368;2023-04-06T03:08:01;27.50;24.00;18.00
65383;PMS5003;51986;52.788;41.368;2023-04-06T03:10:37;29.00;25.00;20.00
65383;PMS5003;51986;52.788;41.368;2023-04-06T03:13:04;26.25;23.00;19.00
65383;PMS5003;51986;52.788;41.368;2023-04-06T03:15:49;19.00;18.50;16.00
65383;PMS5003;51986;52.788;41.368;2023-04-06T03:18:21;19.00;18.00;15.00
65383;PMS5003;51986;52.788;41.368;2023-04-06T03:20:51;27.75;24.50;19.25
65383;PMS5003;51986;52.788;41.368;2023-04-06T03:23:19;31.75;27.00;21.75
65383;PMS5003;51986;52.788;41.368;2023-04-06T03:25:50;23.00;21.00;17.00
65383;PMS5003;51986;52.788;41.368;2023-04-06T03:28:19;20.00;18.50;15.00
65383;PMS5003;51986;52.788;41.368;2023-04-06T03:30:51;20.50;20.00;15.00
65383;PMS5003;51986;52.788;41.368;2023-04-06T03:33:29;26.50;23.75;19.00
65383;PMS5003;51986;52.788;41.368;2023-04-06T03:35:56;26.00;23.00;18.00
65383;PMS5003;51986;52.788;41.368;2023-04-06T03:38:25;20.00;19.00;16.00
65383;PMS5003;51986;52.788;41.368;2023-04-06T03:40:53;29.50;24.75;20.25
65383;PMS5003;51986;52.788;41.368;2023-04-06T03:43:23;24.00;22.00;17.50
65383;PMS5003;51986;52.788;41.368;2023-04-06T03:45:50;29.50;25.00;19.75
65383;PMS5003;51986;52.788;41.368;2023-04-06T03:48:18;27.00;24.00;18.00
65383;PMS5003;51986;52.788;41.368;2023-04-06T03:50:46;24.25;22.00;18.00
65383;PMS5003;51986;52.788;41.368;2023-04-06T03:53:13;22.00;22.00;18.00
65383;PMS5003;51986;52.788;41.368;2023-04-06T03:55:40;22.00;21.00;17.00
65383;PMS5003;51986;52.788;41.368;2023-04-06T03:58:07;29.00;25.00;20.50
65383;PMS5003;51986;52.788;41.368;2023-04-06T04:00:34;31.00;25.50;20.00
65383;PMS5003;51986;52.788;41.368;2023-04-06T04:03:01;31.00;26.00;20.00
65383;PMS5003;51986;52.788;41.368;2023-04-06T04:05:28;31.00;26.00;20.00
65383;PMS5003;51986;52.788;41.368;2023-04-06T04:07:55;27.25;23.00;19.00
65383;PMS5003;51986;52.788;41.368;2023-04-06T04:10:25;21.25;20.00;16.00
65383;PMS5003;51986;52.788;41.368;2023-04-06T04:12:52;21.25;21.00;16.75
65383;PMS5003;51986;52.788;41.368;2023-04-06T04:15:19;22.00;22.00;18.00
65383;PMS5003;51986;52.788;41.368;2023-04-06T04:17:47;24.00;22.00;17.00
65383;PMS5003;51986;52.788;41.368;2023-04-06T04:20:14;22.00;21.00;16.00
65383;PMS5003;51986;52.788;41.368;2023-04-06T04:22:41;26.50;24.00;19.25
65383;PMS5003;51986;52.788;41.368;2023-04-06T04:25:09;26.00;23.00;18.00
65383;PMS5003;51986;52.788;41.368;2023-04-06T04:27:42;28.50;25.00;20.00
65383;PMS5003;51986;52.788;41.368;2023-04-06T04:30:11;31.00;26.00;20.50
65383;PMS5003;51986;52.788;41.368;2023-04-06T04:32:38;26.25;23.25;18.00
65383;PMS5003;51986;52.788;41.368;2023-04-06T04:35:08;27.00;24.25;19.00
65383;PMS5003;51986;52.788;41.368;2023-04-06T04:37:40;31.00;26.00;21.00
65383;PMS5003;51986;52.788;41.368;2023-04-06T04:40:08;30.00;26.00;21.00
65383;PMS5003;51986;52.788;41.368;2023-04-06T04:42:47;27.50;25.00;20.00
65383;PMS5003;51986;52.788;41.368;2023-04-06T04:45:22;23.50;21.75;17.25
65383;PMS5003;51986;52.788;41.368;2023-04-06T04:47:50;21.50;20.50;16.00
65383;PMS5003;51986;52.788;41.368;2023-04-06T04:50:19;28.75;25.00;20.25
65383;PMS5003;51986;52.788;41.368;2023-04-06T04:52:50;33.00;28.00;22.00
65383;PMS5003;51986;52.788;41.368;2023-04-06T04:55:20;34.00;29.00;23.00
65383;PMS5003;51986;52.788;41.368;2023-04-06T04:57:52;31.25;27.25;21.00
65383;PMS5003;51986;52.788;41.368;2023-04-06T05:00:27;28.00;24.00;19.00
65383;PMS5003;51986;52.788;41.368;2023-04-06T05:02:57;27.00;24.00;19.00
65383;PMS5003;51986;52.788;41.368;2023-04-06T05:05:27;30.50;26.00;21.00
65383;PMS5003;51986;52.788;41.368;2023-04-06T05:07:54;33.00;28.00;21.50
65383;PMS5003;51986;52.788;41.368;2023-04-06T05:10:43;28.00;25.00;19.25
65383;PMS5003;51986;52.788;41.368;2023-04-06T05:13:11;29.25;25.25;20.25
65383;PMS5003;51986;52.788;41.368;2023-04-06T05:15:38;32.75;28.00;22.00
65383;PMS5003;51986;52.788;41.368;2023-04-06T05:18:24;34.00;29.00;23.00
65383;PMS5003;51986;52.788;41.368;2023-04-06T05:20:52;30.00;26.00;20.50
65383;PMS5003;51986;52.788;41.368;2023-04-06T05:23:26;30.00;25.00;20.00
65383;PMS5003;51986;52.788;41.368;2023-04-06T05:25:54;29.00;25.00;19.25
65383;PMS5003;51986;52.788;41.368;2023-04-06T05:28:22;30.00;25.00;20.00
65383;PMS5003;51986;52.788;41.368;2023-04-06T05:30:49;33.75;28.25;22.50
65383;PMS5003;51986;52.788;41.368;2023-04-06T05:33:16;37.00;30.00;23.00
65383;PMS5003;51986;52.788;41.368;2023-04-06T05:36:05;38.00;31.00;24.00
65383;PMS5003;51986;52.788;41.368;2023-04-06T05:38:36;32.00;26.50;21.00
65383;PMS5003;51986;52.788;41.368;2023-04-06T05:41:12;31.00;27.00;22.00
65383;PMS5003;51986;52.788;41.368;2023-04-06T05:43:41;34.25;29.50;23.25
65383;PMS5003;51986;52.788;41.368;2023-04-06T05:46:08;30.00;26.00;21.00
65383;PMS5003;51986;52.788;41.368;2023-04-06T05:48:35;32.00;27.25;22.00
65383;PMS5003;51986;52.788;41.368;2023-04-06T05:51:02;29.00;25.25;21.00
65383;PMS5003;51986;52.788;41.368;2023-04-06T05:53:37;33.00;28.50;22.25
65383;PMS5003;51986;52.788;41.368;2023-04-06T05:56:05;34.00;29.00;23.00
65383;PMS5003;51986;52.788;41.368;2023-04-06T05:58:32;31.75;27.00;21.00
65383;PMS5003;51986;52.788;41.368;2023-04-06T06:01:00;33.00;27.00;22.00
65383;PMS5003;51986;52.788;41.368;2023-04-06T06:03:35;31.00;25.50;20.00
65383;PMS5003;51986;52.788;41.368;2023-04-06T06:06:03;32.00;27.00;20.25
65383;PMS5003;51986;52.788;41.368;2023-04-06T06:08:53;32.00;27.00;20.00
65383;PMS5003;51986;52.788;41.368;2023-04-06T06:11:23;32.00;27.00;20.50
65383;PMS5003;51986;52.788;41.368;2023-04-06T06:14:28;29.00;25.00;20.00
65383;PMS5003;51986;52.788;41.368;2023-04-06T06:16:55;30.25;25.75;20.00
65383;PMS5003;51986;52.788;41.368;2023-04-06T06:19:26;34.75;29.50;23.50
65383;PMS5003;51986;52.788;41.368;2023-04-06T06:21:57;38.00;31.00;24.00
65383;PMS5003;51986;52.788;41.368;2023-04-06T06:24:24;34.50;28.50;22.75
65383;PMS5003;51986;52.788;41.368;2023-04-06T06:26:51;33.00;28.00;22.00
65383;PMS5003;51986;52.788;41.368;2023-04-06T06:29:22;33.00;28.00;22.00
65383;PMS5003;51986;52.788;41.368;2023-04-06T06:31:49;35.00;28.00;22.00
65383;PMS5003;51986;52.788;41.368;2023-04-06T06:34:16;32.25;27.00;21.00
65383;PMS5003;51986;52.788;41.368;2023-04-06T06:36:43;33.50;28.00;21.50
65383;PMS5003;51986;52.788;41.368;2023-04-06T06:39:14;33.25;28.00;21.50
65383;PMS5003;51986;52.788;41.368;2023-04-06T06:41:41;34.00;28.50;22.00
65383;PMS5003;51986;52.788;41.368;2023-04-06T06:44:09;31.50;27.00;21.00
65383;PMS5003;51986;52.788;41.368;2023-04-06T06:46:37;33.50;28.50;22.50
65383;PMS5003;51986;52.788;41.368;2023-04-06T06:49:22;30.75;25.50;20.50
65383;PMS5003;51986;52.788;41.368;2023-04-06T06:51:49;32.50;27.00;22.00
65383;PMS5003;51986;52.788;41.368;2023-04-06T06:54:35;32.50;27.25;21.00
65383;PMS5003;51986;52.788;41.368;2023-04-06T06:57:02;40.25;33.25;25.25
65383;PMS5003;51986;52.788;41.368;2023-04-06T07:02:57;37.00;31.00;23.00
65383;PMS5003;51986;52.788;41.368;2023-04-06T07:05:25;37.50;31.75;24.00
65383;PMS5003;51986;52.788;41.368;2023-04-06T07:07:56;36.50;30.00;23.50
65383;PMS5003;51986;52.788;41.368;2023-04-06T07:10:24;36.50;30.00;23.00
65383;PMS5003;51986;52.788;41.368;2023-04-06T07:12:52;36.00;30.25;23.00
65383;PMS5003;51986;52.788;41.368;2023-04-06T07:15:19;34.00;28.00;21.50
65383;PMS5003;51986;52.788;41.368;2023-04-06T07:17:46;35.50;29.75;22.75
65383;PMS5003;51986;52.788;41.368;2023-04-06T07:20:13;38.00;31.50;24.00
65383;PMS5003;51986;52.788;41.368;2023-04-06T07:22:42;39.00;32.00;25.00
65383;PMS5003;51986;52.788;41.368;2023-04-06T07:25:09;41.00;32.00;25.00
65383;PMS5003;51986;52.788;41.368;2023-04-06T07:27:36;39.50;32.00;25.00
65383;PMS5003;51986;52.788;41.368;2023-04-06T07:30:04;38.00;31.00;24.00
65383;PMS5003;51986;52.788;41.368;2023-04-06T07:32:31;35.50;29.00;23.00
65383;PMS5003;51986;52.788;41.368;2023-04-06T07:34:58;36.75;30.00;23.25
65383;PMS5003;51986;52.788;41.368;2023-04-06T07:37:28;34.00;29.00;22.25
65383;PMS5003;51986;52.788;41.368;2023-04-06T07:39:55;35.00;30.00;24.00
65383;PMS5003;51986;52.788;41.368;2023-04-06T07:42:23;36.00;30.25;24.00
65383;PMS5003;51986;52.788;41.368;2023-04-06T07:44:50;36.00;31.00;24.00
65383;PMS5003;51986;52.788;41.368;2023-04-06T07:47:18;35.00;29.50;23.00
65383;PMS5003;51986;52.788;41.368;2023-04-06T07:49:45;35.50;30.00;24.00
65383;PMS5003;51986;52.788;41.368;2023-04-06T07:52:12;36.00;31.00;23.50
65383;PMS5003;51986;52.788;41.368;2023-04-06T07:54:41;37.25;31.00;24.00
65383;PMS5003;51986;52.788;41.368;2023-04-06T07:57:08;43.50;35.25;27.50
65383;PMS5003;51986;52.788;41.368;2023-04-06T07:59:35;42.00;34.00;27.50
65383;PMS5003;51986;52.788;41.368;2023-04-06T08:02:02;40.25;32.25;26.00
65383;PMS5003;51986;52.788;41.368;2023-04-06T08:04:32;38.00;31.00;25.00
65383;PMS5003;51986;52.788;41.368;2023-04-06T08:06:59;36.50;30.50;24.00
65383;PMS5003;51986;52.788;41.368;2023-04-06T08:09:26;36.50;30.00;24.00
65383;PMS5003;51986;52.788;41.368;2023-04-06T08:11:53;38.00;31.50;24.00
65383;PMS5003;51986;52.788;41.368;2023-04-06T08:14:20;37.00;30.00;24.00
65383;PMS5003;51986;52.788;41.368;2023-04-06T08:16:47;34.50;29.00;23.00
65383;PMS5003;51986;52.788;41.368;2023-04-06T08:19:14;36.00;30.00;24.00
65383;PMS5003;51986;52.788;41.368;2023-04-06T08:21:41;37.00;30.00;24.00
65383;PMS5003;51986;52.788;41.368;2023-04-06T08:24:09;37.50;31.00;24.00
65383;PMS5003;51986;52.788;41.368;2023-04-06T08:26:36;35.00;28.00;22.00
65383;PMS5003;51986;52.788;41.368;2023-04-06T08:29:06;37.00;31.00;25.00
65383;PMS5003;51986;52.788;41.368;2023-04-06T08:31:33;36.00;30.50;24.00
65383;PMS5003;51986;52.788;41.368;2023-04-06T08:34:01;37.00;29.50;24.00
65383;PMS5003;51986;52.788;41.368;2023-04-06T08:36:30;34.50;28.50;22.25
65383;PMS5003;51986;52.788;41.368;2023-04-06T08:38:57;34.75;29.00;22.00
65383;PMS5003;51986;52.788;41.368;2023-04-06T08:41:24;36.00;30.00;24.00
65383;PMS5003;51986;52.788;41.368;2023-04-06T08:44:00;37.50;30.50;23.25
65383;PMS5003;51986;52.788;41.368;2023-04-06T08:46:29;36.25;30.00;23.25
65383;PMS5003;51986;52.788;41.368;2023-04-06T08:49:00;38.00;31.00;24.00
65383;PMS5003;51986;52.788;41.368;2023-04-06T08:51:32;34.00;28.75;22.75
65383;PMS5003;51986;52.788;41.368;2023-04-06T08:53:59;36.00;30.25;23.00
65383;PMS5003;51986;52.788;41.368;2023-04-06T08:56:27;36.50;30.50;24.00
65383;PMS5003;51986;52.788;41.368;2023-04-06T08:59:03;36.50;31.00;23.50
65383;PMS5003;51986;52.788;41.368;2023-04-06T09:01:35;36.00;30.50;23.00
65383;PMS5003;51986;52.788;41.368;2023-04-06T09:04:09;36.00;31.00;23.50
65383;PMS5003;51986;52.788;41.368;2023-04-06T09:06:39;38.00;30.00;24.00
65383;PMS5003;51986;52.788;41.368;2023-04-06T09:09:06;37.50;30.50;24.00
65383;PMS5003;51986;52.788;41.368;2023-04-06T09:11:44;36.00;29.50;23.00
65383;PMS5003;51986;52.788;41.368;2023-04-06T09:14:32;38.00;31.00;24.00
65383;PMS5003;51986;52.788;41.368;2023-04-06T09:17:03;35.50;30.50;23.50
65383;PMS5003;51986;52.788;41.368;2023-04-06T09:19:30;37.00;30.00;24.00
65383;PMS5003;51986;52.788;41.368;2023-04-06T09:22:01;37.00;31.50;24.00
65383;PMS5003;51986;52.788;41.368;2023-04-06T09:24:41;38.50;32.25;24.50
65383;PMS5003;51986;52.788;41.368;2023-04-06T09:27:10;36.00;30.50;24.00
65383;PMS5003;51986;52.788;41.368;2023-04-06T09:29:37;33.75;28.50;22.00
65383;PMS5003;51986;52.788;41.368;2023-04-06T09:32:05;37.00;30.75;24.50
65383;PMS5003;51986;52.788;41.368;2023-04-06T09:34:33;35.75;29.50;23.50
65383;PMS5003;51986;52.788;41.368;2023-04-06T09:37:11;38.50;32.00;24.00
65383;PMS5003;51986;52.788;41.368;2023-04-06T09:39:39;38.50;31.50;24.00
65383;PMS5003;51986;52.788;41.368;2023-04-06T09:42:08;38.00;32.00;24.00
65383;PMS5003;51986;52.788;41.368;2023-04-06T09:44:36;38.00;31.50;25.00
65383;PMS5003;51986;52.788;41.368;2023-04-06T09:47:21;34.50;28.50;23.00
65383;PMS5003;51986;52.788;41.368;2023-04-06T09:50:12;38.75;32.00;24.00
65383;PMS5003;51986;52.788;41.368;2023-04-06T09:52:48;37.50;31.50;23.50
65383;PMS5003;51986;52.788;41.368;2023-04-06T09:55:34;39.00;32.00;24.00
65383;PMS5003;51986;52.788;41.368;2023-04-06T09:58:20;38.00;32.00;25.00
65383;PMS5003;51986;52.788;41.368;2023-04-06T10:54:03;40.50;32.00;26.00
65383;PMS5003;51986;52.788;41.368;2023-04-06T10:56:32;38.00;32.00;25.00
65383;PMS5003;51986;52.788;41.368;2023-04-06T10:59:03;39.25;32.75;25.75
65383;PMS5003;51986;52.788;41.368;2023-04-06T11:01:32;40.75;33.00;26.50
65383;PMS5003;51986;52.788;41.368;2023-04-06T11:03:59;40.00;33.00;26.00
65383;PMS5003;51986;52.788;41.368;2023-04-06T11:06:27;39.00;33.00;25.00
65383;PMS5003;51986;52.788;41.368;2023-04-06T11:08:56;39.00;32.75;25.00
65383;PMS5003;51986;52.788;41.368;2023-04-06T11:11:24;39.25;32.50;25.25
65383;PMS5003;51986;52.788;41.368;2023-04-06T11:13:57;39.50;33.00;26.00
65383;PMS5003;51986;52.788;41.368;2023-04-06T11:16:43;42.00;34.00;27.00
65383;PMS5003;51986;52.788;41.368;2023-04-06T11:19:13;40.50;33.75;26.00
65383;PMS5003;51986;52.788;41.368;2023-04-06T11:21:44;40.75;33.00;26.00
65383;PMS5003;51986;52.788;41.368;2023-04-06T11:24:23;40.50;33.50;26.50
65383;PMS5003;51986;52.788;41.368;2023-04-06T11:26:52;39.25;32.50;26.50
65383;PMS5003;51986;52.788;41.368;2023-04-06T11:29:28;38.50;32.00;26.00
65383;PMS5003;51986;52.788;41.368;2023-04-06T11:32:00;39.75;33.00;26.25
65383;PMS5003;51986;52.788;41.368;2023-04-06T11:34:29;40.50;33.00;26.00
65383;PMS5003;51986;52.788;41.368;2023-04-06T11:37:01;40.00;33.00;25.75
65383;PMS5003;51986;52.788;41.368;2023-04-06T11:39:30;40.00;33.00;25.50
65383;PMS5003;51986;52.788;41.368;2023-04-06T11:42:01;38.50;33.00;25.00
65383;PMS5003;51986;52.788;41.368;2023-04-06T11:44:34;39.50;32.25;25.50
65383;PMS5003;51986;52.788;41.368;2023-04-06T11:47:04;40.00;33.00;25.25
65383;PMS5003;51986;52.788;41.368;2023-04-06T11:49:33;41.00;34.00;26.00
65383;PMS5003;51986;52.788;41.368;2023-04-06T11:52:14;40.50;33.00;26.00
65383;PMS5003;51986;52.788;41.368;2023-04-06T11:54:44;40.00;33.00;26.00
65383;PMS5003;51986;52.788;41.368;2023-04-06T11:57:32;39.75;33.75;26.00
65383;PMS5003;51986;52.788;41.368;2023-04-06T12:00:00;40.75;34.00;27.00
65383;PMS5003;51986;52.788;41.368;2023-04-06T12:02:30;40.00;33.50;27.00
65383;PMS5003;51986;52.788;41.368;2023-04-06T12:04:57;41.25;33.50;26.00
65383;PMS5003;51986;52.788;41.368;2023-04-06T12:07:24;38.75;32.50;26.00
65383;PMS5003;51986;52.788;41.368;2023-04-06T12:09:51;39.00;33.00;25.50
65383;PMS5003;51986;52.788;41.368;2023-04-06T12:12:18;39.00;32.00;25.25
65383;PMS5003;51986;52.788;41.368;2023-04-06T12:14:45;39.00;32.00;25.00
65383;PMS5003;51986;52.788;41.368;2023-04-06T12:17:12;36.50;30.00;23.50
65383;PMS5003;51986;52.788;41.368;2023-04-06T12:19:39;36.50;30.50;24.00
65383;PMS5003;51986;52.788;41.368;2023-04-06T12:22:06;38.00;32.00;25.00
65383;PMS5003;51986;52.788;41.368;2023-04-06T12:24:34;39.00;32.00;25.00
65383;PMS5003;51986;52.788;41.368;2023-04-06T12:27:01;38.50;32.50;25.00
65383;PMS5003;51986;52.788;41.368;2023-04-06T12:29:36;39.00;33.00;25.00
65383;PMS5003;51986;52.788;41.368;2023-04-06T12:32:05;40.75;33.75;26.50
65383;PMS5003;51986;52.788;41.368;2023-04-06T12:34:34;40.50;34.00;26.00
65383;PMS5003;51986;52.788;41.368;2023-04-06T12:37:02;39.50;32.50;25.00
65383;PMS5003;51986;52.788;41.368;2023-04-06T12:39:31;39.00;32.00;25.00
65383;PMS5003;51986;52.788;41.368;2023-04-06T12:41:58;40.00;32.00;25.00
65383;PMS5003;51986;52.788;41.368;2023-04-06T12:44:25;39.50;33.00;26.00
65383;PMS5003;51986;52.788;41.368;2023-04-06T12:46:53;39.00;32.00;25.00
65383;PMS5003;51986;52.788;41.368;2023-04-06T12:49:20;41.25;34.00;26.00
65383;PMS5003;51986;52.788;41.368;2023-04-06T12:51:47;44.00;35.00;27.00
65383;PMS5003;51986;52.788;41.368;2023-04-06T12:54:14;41.75;33.50;25.50
65383;PMS5003;51986;52.788;41.368;2023-04-06T12:56:41;40.00;33.00;25.00
65383;PMS5003;51986;52.788;41.368;2023-04-06T12:59:09;40.00;33.00;26.00
65383;PMS5003;51986;52.788;41.368;2023-04-06T13:01:36;40.50;33.00;26.00
65383;PMS5003;51986;52.788;41.368;2023-04-06T13:04:04;38.00;31.50;25.00
65383;PMS5003;51986;52.788;41.368;2023-04-06T13:06:31;38.00;32.00;25.25
65383;PMS5003;51986;52.788;41.368;2023-04-06T13:08:58;38.75;32.00;25.00
65383;PMS5003;51986;52.788;41.368;2023-04-06T13:11:25;38.00;32.00;25.00
65383;PMS5003;51986;52.788;41.368;2023-04-06T13:13:54;37.00;31.00;25.00
65383;PMS5003;51986;52.788;41.368;2023-04-06T13:16:21;39.00;33.00;25.50
65383;PMS5003;51986;52.788;41.368;2023-04-06T13:18:48;39.50;33.00;25.00
65383;PMS5003;51986;52.788;41.368;2023-04-06T13:21:15;39.00;33.00;25.00
65383;PMS5003;51986;52.788;41.368;2023-04-06T13:23:43;39.00;32.00;25.00
65383;PMS5003;51986;52.788;41.368;2023-04-06T13:26:10;39.00;32.50;25.00
65383;PMS5003;51986;52.788;41.368;2023-04-06T13:28:37;37.00;31.00;24.00
65383;PMS5003;51986;52.788;41.368;2023-04-06T13:31:05;37.50;32.00;25.00
65383;PMS5003;51986;52.788;41.368;2023-04-06T13:33:32;39.00;32.00;25.00
65383;PMS5003;51986;52.788;41.368;2023-04-06T13:35:59;39.00;32.00;25.00
65383;PMS5003;51986;52.788;41.368;2023-04-06T13:38:45;39.00;32.00;25.00
65383;PMS5003;51986;52.788;41.368;2023-04-06T13:41:22;38.50;32.00;24.50
65383;PMS5003;51986;52.788;41.368;2023-04-06T13:43:50;37.25;31.00;25.00
65383;PMS5003;51986;52.788;41.368;2023-04-06T13:46:17;39.00;32.00;26.00
65383;PMS5003;51986;52.788;41.368;2023-04-06T13:48:45;38.50;32.25;25.00
65383;PMS5003;51986;52.788;41.368;2023-04-06T13:51:12;39.00;32.00;25.00
65383;PMS5003;51986;52.788;41.368;2023-04-06T13:53:40;38.00;32.00;25.00
65383;PMS5003;51986;52.788;41.368;2023-04-06T13:56:07;38.50;32.50;25.50
65383;PMS5003;51986;52.788;41.368;2023-04-06T13:58:53;38.50;32.50;26.00
65383;PMS5003;51986;52.788;41.368;2023-04-06T14:01:21;38.00;32.00;25.00
65383;PMS5003;51986;52.788;41.368;2023-04-06T14:03:49;38.25;32.25;25.00
65383;PMS5003;51986;52.788;41.368;2023-04-06T14:06:16;37.50;32.00;25.00
65383;PMS5003;51986;52.788;41.368;2023-04-06T14:09:03;37.00;32.00;25.00
65383;PMS5003;51986;52.788;41.368;2023-04-06T14:11:31;38.75;33.00;26.00
65383;PMS5003;51986;52.788;41.368;2023-04-06T14:13:59;40.00;33.00;25.00
65383;PMS5003;51986;52.788;41.368;2023-04-06T14:16:29;40.00;33.00;25.00
65383;PMS5003;51986;52.788;41.368;2023-04-06T14:18:56;39.00;32.00;25.00
65383;PMS5003;51986;52.788;41.368;2023-04-06T14:21:23;39.25;32.25;26.00
65383;PMS5003;51986;52.788;41.368;2023-04-06T14:24:08;39.50;33.00;26.00
65383;PMS5003;51986;52.788;41.368;2023-04-06T14:26:36;40.00;34.00;25.50
65383;PMS5003;51986;52.788;41.368;2023-04-06T14:29:04;40.00;33.75;25.00
65383;PMS5003;51986;52.788;41.368;2023-04-06T14:31:32;39.00;32.50;25.00
65383;PMS5003;51986;52.788;41.368;2023-04-06T14:34:00;38.00;33.00;25.00
65383;PMS5003;51986;52.788;41.368;2023-04-06T14:36:32;37.75;32.50;25.00
65383;PMS5003;51986;52.788;41.368;2023-04-06T14:38:59;38.00;31.75;25.00
65383;PMS5003;51986;52.788;41.368;2023-04-06T14:41:26;38.75;32.00;25.00
65383;PMS5003;51986;52.788;41.368;2023-04-06T14:43:53;38.50;32.00;25.00
65383;PMS5003;51986;52.788;41.368;2023-04-06T14:49:06;39.00;33.00;25.00